Randolph, MN

4:21 AM CDT on August 24, 2016 (GMT -0500)
Stanton

Weather History for KSYN - November, 2012

Change the Weather History Date:

Sunday, November 18, 2012

  Actual Average (KLVN) Record (KLVN)
Temperature  
Mean Temperature 52 °F -  
Max Temperature 59 °F 41 °F 65 °F (1953)
Min Temperature 44 °F 24 °F -1 °F (1989)
Degree Days  
Heating Degree Days 14    
Growing Degree Days 2 (Base 50)    
Moisture  
Dew Point 32 °F    
Average Humidity 49    
Maximum Humidity 60    
Minimum Humidity 34    
Precipitation  
Precipitation 0.00 in - - ()
Sea Level Pressure  
Sea Level Pressure 30.13 in    
Wind  
Wind Speed 15 mph (South)    
Max Wind Speed 20 mph    
Max Gust Speed 26 mph    
Visibility 10 miles    
Events      
Averages and records for this station are not official NWS values.
T = Trace of Precipitation, MM = Missing Value Source: NWS Daily Summary

Daily Weather History Graph

Daily Weather History Graph

Search for Another Location

Airport or City:

Trip Planner

Search our weather history database for the weather conditions in past years. The results will help you decide how hot, cold, wet, or windy it might be!

Date:

Astronomy

Nov. 18, 2012 Rise Set
Actual Time 7:12 AM CST 4:41 PM CST
Civil Twilight 6:41 AM CST 5:13 PM CST
Nautical Twilight 6:05 AM CST 5:48 PM CST
Astronomical Twilight 5:31 AM CST 6:23 PM CST
Moon 11:37 AM CST (11/18) 10:05 PM CST (11/18)
Length of Visible Light 10h 31m
Length of Day
9h 28m
Waxing Crescent, 30% of the Moon is Illuminated
Nov 18
Waxing Crescent
Nov 20
First Quarter
Nov 28
Full
Dec 6
Last Quarter
Dec 13
New

Hourly Weather History & Observations

Time (CST) Temp. Windchill Dew Point Humidity Pressure Visibility Wind Dir Wind Speed Gust Speed Precip Events Conditions
12:12 AM 49.1 °F - 32.7 °F 53% 30.21 in 10.0 mi South 18.4 mph 25.3 mph N/A   Overcast
12:33 AM 49.1 °F - 32.4 °F 53% 30.21 in 10.0 mi South 12.7 mph 24.2 mph N/A   Overcast
12:52 AM 49.1 °F - 32.4 °F 53% 30.20 in 10.0 mi South 16.1 mph 26.5 mph N/A   Overcast
1:12 AM 48.6 °F - 32.5 °F 54% 30.20 in 10.0 mi SSE 17.3 mph - N/A   Overcast
1:33 AM 48.7 °F - 32.0 °F 52% 30.20 in 10.0 mi South 19.6 mph 26.5 mph N/A   Overcast
1:52 AM 48.6 °F - 32.0 °F 53% 30.19 in 10.0 mi South 17.3 mph 25.3 mph N/A   Overcast
2:12 AM 48.7 °F - 31.8 °F 52% 30.20 in 10.0 mi South 18.4 mph 25.3 mph N/A   Overcast
2:33 AM 48.2 °F - 31.8 °F 53% 30.20 in 10.0 mi South 13.8 mph 20.7 mph N/A   Overcast
2:52 AM 47.5 °F - 32.0 °F 55% 30.19 in 10.0 mi South 12.7 mph 17.3 mph N/A   Overcast
3:13 AM 47.5 °F - 31.8 °F 55% 30.18 in 10.0 mi South 13.8 mph 18.4 mph N/A   Overcast
3:32 AM 47.8 °F - 31.5 °F 53% 30.18 in 10.0 mi South 12.7 mph 18.4 mph N/A   Overcast
3:52 AM 47.5 °F - 31.1 °F 53% 30.17 in 10.0 mi South 15.0 mph 23.0 mph N/A   Overcast
4:13 AM 47.3 °F - 31.1 °F 53% 30.17 in 10.0 mi South 17.3 mph - N/A   Overcast
4:32 AM 47.1 °F - 30.7 °F 53% 30.16 in 10.0 mi South 13.8 mph 18.4 mph N/A   Overcast
4:52 AM 46.8 °F - 30.6 °F 53% 30.16 in 10.0 mi South 13.8 mph 20.7 mph N/A   Overcast
5:13 AM 46.6 °F - 30.2 °F 53% 30.16 in 10.0 mi South 13.8 mph 20.7 mph N/A   Overcast
5:32 AM 46.4 °F 40.1 °F 30.2 °F 53% 30.16 in 10.0 mi South 15.0 mph 21.9 mph N/A   Overcast
5:52 AM 46.4 °F 40.1 °F 30.0 °F 53% 30.15 in 10.0 mi South 15.0 mph 25.3 mph N/A   Overcast
6:13 AM 45.9 °F 40.0 °F 30.2 °F 54% 30.15 in 10.0 mi South 12.7 mph 21.9 mph N/A   Mostly Cloudy
6:32 AM 45.1 °F 39.1 °F 30.2 °F 56% 30.15 in 10.0 mi South 12.7 mph 19.6 mph N/A   Scattered Clouds
6:52 AM 45.0 °F 39.3 °F 30.4 °F 57% 30.15 in 10.0 mi South 11.5 mph 18.4 mph N/A   Clear
7:13 AM 44.6 °F 38.4 °F 30.6 °F 58% 30.15 in 10.0 mi South 12.7 mph 17.3 mph N/A   Clear
7:32 AM 44.1 °F 37.4 °F 30.9 °F 60% 30.15 in 10.0 mi South 13.8 mph - N/A   Clear
7:52 AM 44.1 °F 37.4 °F 30.9 °F 60% 30.15 in 10.0 mi South 13.8 mph 20.7 mph N/A   Clear
8:13 AM 44.6 °F 38.1 °F 31.1 °F 59% 30.14 in 10.0 mi South 13.8 mph - N/A   Clear
8:32 AM 45.1 °F 38.1 °F 30.9 °F 58% 30.14 in 10.0 mi SSE 16.1 mph 23.0 mph N/A   Clear
8:52 AM 45.9 °F 38.8 °F 31.1 °F 56% 30.15 in 10.0 mi South 17.3 mph 23.0 mph N/A   Clear
9:13 AM 46.9 °F - 30.7 °F 53% 30.14 in 10.0 mi South 12.7 mph 26.5 mph N/A   Clear
9:32 AM 47.7 °F - 31.1 °F 53% 30.14 in 10.0 mi South 12.7 mph 23.0 mph N/A   Clear
9:52 AM 48.6 °F - 31.3 °F 51% 30.14 in 10.0 mi South 16.1 mph 21.9 mph N/A   Clear
10:13 AM 49.5 °F - 31.5 °F 50% 30.14 in 10.0 mi South 15.0 mph - N/A   Clear
10:32 AM 50.7 °F - 31.8 °F 48% 30.14 in 10.0 mi South 13.8 mph 20.7 mph N/A   Scattered Clouds
10:52 AM 51.6 °F - 31.6 °F 46% 30.14 in 10.0 mi South 12.7 mph 23.0 mph N/A   Scattered Clouds
11:13 AM 52.9 °F - 32.0 °F 45% 30.13 in 10.0 mi South 15.0 mph 19.6 mph N/A   Scattered Clouds
11:32 AM 54.0 °F - 32.0 °F 43% 30.12 in 10.0 mi South 13.8 mph - N/A   Clear
11:52 AM 54.9 °F - 31.6 °F 41% 30.12 in 10.0 mi South 16.1 mph 19.6 mph N/A   Clear
12:12 PM 55.8 °F - 31.1 °F 39% 30.11 in 10.0 mi South 13.8 mph - N/A   Clear
12:33 PM 56.5 °F - 31.5 °F 39% 30.10 in 10.0 mi South 17.3 mph 23.0 mph N/A   Clear
12:52 PM 57.0 °F - 31.6 °F 38% 30.10 in 10.0 mi South 16.1 mph 21.9 mph N/A   Clear
1:12 PM 58.1 °F - 32.0 °F 37% 30.10 in 10.0 mi South 15.0 mph 20.7 mph N/A   Clear
1:32 PM 57.6 °F - 31.6 °F 37% 30.09 in 10.0 mi South 13.8 mph 21.9 mph N/A   Clear
1:53 PM 58.5 °F - 31.5 °F 36% 30.09 in 10.0 mi South 13.8 mph 25.3 mph N/A   Clear
2:12 PM 56.8 °F - 31.8 °F 39% 30.08 in 10.0 mi South 12.7 mph 16.1 mph N/A   Clear
2:32 PM 57.6 °F - 32.2 °F 38% 30.07 in 10.0 mi SSE 10.4 mph - N/A   Clear
2:53 PM 59.9 °F - 31.6 °F 34% 30.07 in 10.0 mi South 16.1 mph 25.3 mph N/A   Clear
3:12 PM 59.2 °F - 31.1 °F 35% 30.07 in 10.0 mi South 15.0 mph 25.3 mph N/A   Clear
3:32 PM 58.5 °F - 32.0 °F 37% 30.07 in 10.0 mi SSE 8.1 mph 20.7 mph N/A   Clear
3:52 PM 57.4 °F - 32.0 °F 38% 30.08 in 10.0 mi South 12.7 mph - N/A   Clear
4:12 PM 56.5 °F - 32.2 °F 40% 30.09 in 10.0 mi South 12.7 mph - N/A   Clear
4:32 PM 56.3 °F - 32.5 °F 41% 30.09 in 10.0 mi South 10.4 mph - N/A   Clear
4:52 PM 55.6 °F - 32.9 °F 42% 30.09 in 10.0 mi South 8.1 mph 17.3 mph N/A   Clear
5:12 PM 54.3 °F - 32.9 °F 44% 30.09 in 10.0 mi South 12.7 mph - N/A   Clear
5:32 PM 53.4 °F - 33.4 °F 47% 30.10 in 10.0 mi South 12.7 mph 20.7 mph N/A   Clear
5:52 PM 52.7 °F - 33.3 °F 48% 30.10 in 10.0 mi South 13.8 mph - N/A   Clear
6:12 PM 52.0 °F - 33.3 °F 49% 30.10 in 10.0 mi South 13.8 mph 20.7 mph N/A   Clear
6:32 PM 52.0 °F - 33.4 °F 49% 30.10 in 10.0 mi South 17.3 mph 23.0 mph N/A   Clear
6:52 PM 51.6 °F - 33.8 °F 51% 30.10 in 10.0 mi South 16.1 mph 21.9 mph N/A   Clear
7:12 PM 51.3 °F - 33.8 °F 51% 30.09 in 10.0 mi SSE 15.0 mph 19.6 mph N/A   Clear
7:32 PM 50.9 °F - 33.6 °F 52% 30.09 in 10.0 mi SSE 12.7 mph 20.7 mph N/A   Clear
8:12 PM 51.1 °F - 33.1 °F 50% 30.09 in 10.0 mi South 13.8 mph 25.3 mph N/A   Clear
8:32 PM 51.3 °F - 33.1 °F 50% 30.10 in 10.0 mi South 11.5 mph 20.7 mph N/A   Clear
8:52 PM 51.1 °F - 32.9 °F 50% 30.10 in 10.0 mi South 11.5 mph 20.7 mph N/A   Clear
9:12 PM 50.9 °F - 32.7 °F 50% 30.10 in 10.0 mi South 13.8 mph 19.6 mph N/A   Clear
9:32 PM 50.0 °F - 32.9 °F 52% 30.10 in 10.0 mi South 12.7 mph - N/A   Clear
9:53 PM 49.6 °F - 32.9 °F 53% 30.10 in 10.0 mi South 11.5 mph - N/A   Clear
10:12 PM 49.1 °F - 32.7 °F 53% 30.11 in 10.0 mi South 16.1 mph 19.6 mph N/A   Clear
10:32 PM 48.6 °F - 32.9 °F 55% 30.10 in 10.0 mi South 10.4 mph 17.3 mph N/A   Clear
10:53 PM 48.9 °F - 32.9 °F 54% 30.10 in 10.0 mi South 11.5 mph 19.6 mph N/A   Scattered Clouds
11:12 PM 49.1 °F - 33.1 °F 54% 30.10 in 10.0 mi South 10.4 mph - N/A   Mostly Cloudy
11:32 PM 49.6 °F - 33.4 °F 54% 30.10 in 10.0 mi South 12.7 mph 16.1 mph N/A   Mostly Cloudy
11:52 PM 49.8 °F - 33.4 °F 53% 30.10 in 10.0 mi South 12.7 mph - N/A   Mostly Cloudy